Haines, AK

1:33 PM AKDT on August 27, 2014 (GMT -0800)
Haines | Change Station
CLOSE
Current Station
Airport
Location: Haines,
Elevation: 16 ft
Nearby Weather Stations

Elev 16 ft 59.24 °N, 135.51 °W | Updated 28 minutes ago

Overcast
Overcast
57 °F
Feels Like 57 °F
N
9
Wind Variable Wind from ESE

Today
High -- | Low -- °F
--% Chance of Precip.
Yesterday
High -- | Low -- °F
Precip. -- in
5:47 AM 8:17 PM
Waxing Crescent, 5% visible
Pressure 30.07 in
Visibility 10.0 miles
Clouds Mostly Cloudy 1700 ft
Overcast 6500 ft
Dew Point 51 °F
Humidity 81%
Rainfall 0.00 in
Snow Depth Not available.
UV 2 out of 12
Pollen Not available.
Air Quality Not available.
Flu Activity Not available.
SPECI PAHN 272105Z AUTO 11008KT 10SM BKN017 OVC065 14/11 A3007 RMK AO2 T01390106 TSNO

More Conditions Fewer Conditions

Pressure 30.07 in
Visibility 10.0 miles
Clouds Mostly Cloudy 1700 ft
Overcast 6500 ft
Dew Point 51 °F
Humidity 81%
Rainfall 0.00 in
Snow Depth Not available.
UV 2 out of 12
Pollen Not available.
Air Quality Not available.
Flu Activity Not available.
SPECI PAHN 272105Z AUTO 11008KT 10SM BKN017 OVC065 14/11 A3007 RMK AO2 T01390106 TSNO

More Conditions Fewer Conditions

10-Day Weather Forecast

Almanac

Astronomy

Aug. 27, 2014 Rise Set
Actual Time 5:47 AM AKDT 8:17 PM AKDT
Civil Twilight 5:02 AM AKDT 9:02 PM AKDT
Nautical Twilight 4:02 AM AKDT 10:01 PM AKDT
Astronomical Twilight 2:41 AM AKDT 11:20 PM AKDT
Moon 8:31 AM AKDT 8:27 PM AKDT
Length of Visible Light 15h 59m
Length of Day
14h 29m
Tomorrow will be 5m 11s shorter.
Waxing Crescent, 5% of the Moon is Illuminated
Today
Waxing Crescent
Sep 2
First Quarter
Sep 8
Full
Sep 15
Last Quarter
Sep 24
New

Today's Extremes

State Highs State Lows

Community

WunderPhotos

Upload Photos

1,747,791 photos uploaded!

Nearby

Snow Depth

Station Depth Elevation
Long Lake 0 in 820 ft
Upper Tsaina River 0 in 1750 ft
Moraine 0 in 2100 ft
Granite Creek 0 in 1240 ft
Grandview 21 in 1100 ft

Earthquake Activity

City Distance Mag. Time & Date
No recent earthquake activity has been reported nearby.
Minimum magnitude displayed is 2.5.

Coastal Water Temperatures

Place Temperature
No Stations Reporting

Nearby Weather Stations